This is the latest recevied weather packets stored in our database for station/object DG1GMY-13. If no packets are shown the sender has not sent any weather packets the latest 10 day(s).
| Time | Temp. | Humidity | Pressure | Rain* | Wind** | Luminosity | Snow |
|---|---|---|---|---|---|---|---|
| 1777826512 | 20.56° C | 36% | 1015.2 hPa | - | - | - | - |
| 1777824706 | 21.11° C | 34% | 1015 hPa | - | - | - | - |
| 1777822900 | 22.22° C | 33% | 1014.3 hPa | - | - | - | - |
| 1777821094 | 24.44° C | 38% | 1013.6 hPa | - | - | - | - |
| 1777819288 | 25° C | 36% | 1013.7 hPa | - | - | - | - |
| 1777817483 | 24.44° C | 40% | 1013.9 hPa | - | - | - | - |
| 1777815676 | 25° C | 38% | 1014 hPa | - | - | - | - |
| 1777813870 | 25° C | 37% | 1014.3 hPa | - | - | - | - |
| 1777812064 | 24.44° C | 40% | 1014.7 hPa | - | - | - | - |
| 1777810258 | 23.89° C | 43% | 1014.7 hPa | - | - | - | - |
| 1777808452 | 23.33° C | 46% | 1015.1 hPa | - | - | - | - |
| 1777806646 | 22.78° C | 48% | 1015 hPa | - | - | - | - |
| 1777804840 | 23.33° C | 44% | 1015 hPa | - | - | - | - |
| 1777803034 | 21.67° C | 55% | 1015.7 hPa | - | - | - | - |
| 1777801228 | 21.11° C | 69% | 1015.8 hPa | - | - | - | - |
| 1777799423 | 18.89° C | 91% | 1016.3 hPa | - | - | - | - |
| 1777797616 | 17.22° C | 100% | 1016.3 hPa | - | - | - | - |
| 1777795810 | 14.44° C | 100% | 1016.6 hPa | - | - | - | - |
| 1777794004 | 13.33° C | 100% | 1016.8 hPa | - | - | - | - |
| 1777792198 | 12.22° C | 100% | 1016.6 hPa | - | - | - | - |
| 1777790392 | 14.44° C | 84% | 1017.2 hPa | - | - | - | - |
| 1777788586 | 15° C | 73% | 1016.3 hPa | - | - | - | - |
| 1777786781 | 13.89° C | 88% | 1016.4 hPa | - | - | - | - |
| 1777784974 | 14.44° C | 70% | 1016.7 hPa | - | - | - | - |
| 1777783169 | 13.33° C | 71% | 1016.5 hPa | - | - | - | - |
* Rain since midnight (hover to see other rain measurements)
** Current wind speed in m/s (hover to see current wind gust speed)